Time;durP1;ratioP1;P1;durP2;ratioP2;P2;SDS_P1;SDS_P2;PMS_P1;PMS_P2;Temp;Humidity;BMP_temperature;BMP_pressure;BME280_temperature;BME280_humidity;BME280_pressure;Samples;Min_cycle;Max_cycle;Signal;HPM_P1;HPM_P2
2023/12/16 00:00:59;;;;;;;22.90;4.25;;;6.80;99.90;;;;;;5065425;28;20442;-62
2023/12/16 00:03:29;;;;;;;25.55;4.75;;;6.90;99.90;;;;;;5073107;28;20415;-62
2023/12/16 00:05:55;;;;;;;23.00;4.88;;;6.80;99.90;;;;;;5073009;28;20043;-62
2023/12/16 00:08:22;;;;;;;26.75;4.50;;;6.80;99.90;;;;;;5072987;28;20412;-62
2023/12/16 00:10:50;;;;;;;20.60;4.25;;;6.80;99.90;;;;;;5073019;28;20397;-62
2023/12/16 00:13:21;;;;;;;21.80;4.05;;;6.80;99.90;;;;;;5074488;28;20032;-62
2023/12/16 00:15:49;;;;;;;21.65;4.47;;;6.80;99.90;;;;;;5076620;28;20071;-62
2023/12/16 00:18:16;;;;;;;21.80;4.50;;;6.80;99.90;;;;;;5076326;28;20039;-62
2023/12/16 00:20:43;;;;;;;18.00;4.25;;;6.80;99.90;;;;;;5076046;28;20099;-61
2023/12/16 00:23:10;;;;;;;16.77;4.53;;;6.80;99.90;;;;;;5076427;28;20041;-61
2023/12/16 00:25:36;;;;;;;26.35;4.25;;;6.80;99.90;;;;;;5076235;28;20109;-61
2023/12/16 00:28:03;;;;;;;21.13;4.47;;;6.80;99.90;;;;;;5076137;28;20079;-61
2023/12/16 00:30:30;;;;;;;19.90;4.82;;;6.80;99.90;;;;;;5074913;28;20382;-61
2023/12/16 00:32:58;;;;;;;17.63;4.60;;;6.80;99.90;;;;;;5076268;28;20434;-61
2023/12/16 00:35:26;;;;;;;20.90;5.13;;;6.70;99.90;;;;;;5075986;28;20382;-61
2023/12/16 00:37:53;;;;;;;19.13;5.10;;;6.70;99.90;;;;;;5075959;28;20064;-61
2023/12/16 00:40:20;;;;;;;21.13;5.00;;;6.70;99.90;;;;;;5075655;28;20036;-66
2023/12/16 00:42:47;;;;;;;20.20;5.10;;;6.70;99.90;;;;;;5075900;28;20556;-62
2023/12/16 00:45:13;;;;;;;17.55;4.00;;;6.70;99.90;;;;;;5074934;28;20412;-62
2023/12/16 00:47:42;;;;;;;22.08;4.90;;;6.70;99.90;;;;;;5075912;28;20443;-61
2023/12/16 00:50:09;;;;;;;13.13;3.85;;;6.70;99.90;;;;;;5075575;28;20099;-62
2023/12/16 00:52:36;;;;;;;15.70;4.35;;;6.80;99.90;;;;;;5075507;28;20063;-61
2023/12/16 00:55:03;;;;;;;20.42;4.47;;;6.80;99.90;;;;;;5075851;28;20040;-61
2023/12/16 00:57:30;;;;;;;18.08;4.07;;;6.70;99.90;;;;;;5075545;28;20436;-61
2023/12/16 00:59:56;;;;;;;20.05;4.40;;;6.80;99.90;;;;;;5075816;28;20040;-62
2023/12/16 01:02:23;;;;;;;19.77;4.75;;;6.70;99.90;;;;;;5075323;28;20044;-62
2023/12/16 01:04:52;;;;;;;15.68;3.90;;;6.80;99.90;;;;;;5074191;28;20041;-61
2023/12/16 01:07:19;;;;;;;18.52;4.60;;;6.80;99.90;;;;;;5075648;28;20465;-61
2023/12/16 01:09:46;;;;;;;17.23;4.05;;;6.80;99.90;;;;;;5074360;28;20075;-61
2023/12/16 01:12:12;;;;;;;14.55;3.92;;;6.90;99.90;;;;;;5074139;28;20408;-61
2023/12/16 01:14:39;;;;;;;17.27;4.05;;;6.90;99.90;;;;;;5075573;28;20098;-61
2023/12/16 01:17:06;;;;;;;12.85;3.40;;;7.00;99.90;;;;;;5075095;28;20421;-61
2023/12/16 01:19:33;;;;;;;16.65;4.53;;;7.00;99.90;;;;;;5075332;28;20036;-61
2023/12/16 01:22:00;;;;;;;21.33;3.80;;;7.00;99.90;;;;;;5075227;28;20079;-61
2023/12/16 01:24:27;;;;;;;13.38;3.22;;;7.00;99.90;;;;;;5074570;28;20044;-61
2023/12/16 01:26:54;;;;;;;16.42;3.65;;;7.00;99.90;;;;;;5075187;28;20393;-61
2023/12/16 01:29:20;;;;;;;12.35;3.00;;;7.00;99.90;;;;;;5073680;28;20044;-61
2023/12/16 01:31:47;;;;;;;16.55;4.00;;;7.10;99.90;;;;;;5075271;28;20123;-61
2023/12/16 01:34:14;;;;;;;10.07;3.17;;;7.10;99.90;;;;;;5074975;28;20520;-61
2023/12/16 01:36:41;;;;;;;13.75;3.53;;;7.10;99.90;;;;;;5074731;28;20106;-61
2023/12/16 01:39:08;;;;;;;9.93;2.80;;;7.10;99.90;;;;;;5074310;28;20397;-61
2023/12/16 01:41:35;;;;;;;15.30;3.25;;;7.10;99.90;;;;;;5074886;28;20036;-61
2023/12/16 01:44:02;;;;;;;13.73;3.13;;;7.20;99.90;;;;;;5074549;28;20049;-61
2023/12/16 01:46:29;;;;;;;9.52;2.60;;;7.20;99.90;;;;;;5074606;28;20040;-61
2023/12/16 01:48:56;;;;;;;16.17;2.88;;;7.30;99.90;;;;;;5074231;28;20488;-61
2023/12/16 01:51:23;;;;;;;15.35;3.20;;;7.40;99.90;;;;;;5074447;28;20448;-61
2023/12/16 01:53:49;;;;;;;14.43;3.83;;;7.40;99.90;;;;;;5071938;28;20040;-61
2023/12/16 01:56:16;;;;;;;14.05;2.80;;;7.40;99.90;;;;;;5054514;28;20037;-60
2023/12/16 01:58:43;;;;;;;11.63;2.80;;;7.50;99.90;;;;;;5054398;28;20037;-61
2023/12/16 02:01:10;;;;;;;16.45;2.92;;;7.60;99.90;;;;;;5054110;28;20377;-61
2023/12/16 02:03:37;;;;;;;9.93;2.67;;;7.60;99.90;;;;;;5054358;28;20546;-61
2023/12/16 02:06:04;;;;;;;13.77;3.25;;;7.70;99.90;;;;;;5054011;28;20047;-61
2023/12/16 02:08:31;;;;;;;13.15;3.13;;;7.70;99.90;;;;;;5054057;28;20508;-61
2023/12/16 02:10:58;;;;;;;10.02;2.92;;;7.80;99.90;;;;;;5054008;28;20072;-61
2023/12/16 02:13:25;;;;;;;11.07;2.58;;;7.80;99.90;;;;;;5054119;28;20040;-61
2023/12/16 02:15:52;;;;;;;10.63;2.65;;;7.80;99.90;;;;;;5054071;28;20037;-60
2023/12/16 02:18:18;;;;;;;10.13;2.80;;;7.90;99.90;;;;;;5053932;28;20041;-61
2023/12/16 02:20:46;;;;;;;10.95;2.53;;;7.90;99.90;;;;;;5054005;28;20045;-61
2023/12/16 02:23:13;;;;;;;12.85;2.55;;;7.90;99.90;;;;;;5054012;28;20049;-61
2023/12/16 02:25:42;;;;;;;12.38;2.72;;;8.00;99.90;;;;;;5053995;28;20072;-61
2023/12/16 02:28:10;;;;;;;10.68;2.55;;;8.00;99.90;;;;;;5053952;28;20098;-61
2023/12/16 02:30:36;;;;;;;8.25;2.25;;;8.00;99.90;;;;;;5054178;28;20049;-61
2023/12/16 02:33:03;;;;;;;12.10;2.75;;;8.10;99.90;;;;;;5053803;28;20037;-61
2023/12/16 02:35:31;;;;;;;9.25;2.40;;;8.10;99.90;;;;;;5052704;28;20636;-61
2023/12/16 02:37:57;;;;;;;7.85;2.40;;;8.10;99.90;;;;;;5053690;28;20454;-61
2023/12/16 02:40:24;;;;;;;7.60;2.47;;;8.10;99.90;;;;;;5053670;28;20052;-61
2023/12/16 02:42:51;;;;;;;12.43;2.53;;;8.20;99.90;;;;;;5052348;28;20486;-61
2023/12/16 02:45:19;;;;;;;8.88;2.90;;;8.20;99.90;;;;;;5053522;28;20090;-61
2023/12/16 02:47:45;;;;;;;9.02;2.67;;;8.20;99.90;;;;;;5053793;28;20071;-61
2023/12/16 02:50:12;;;;;;;11.55;2.30;;;8.20;99.90;;;;;;5053908;28;20377;-61
2023/12/16 02:52:39;;;;;;;9.98;2.35;;;8.20;99.90;;;;;;5053667;28;20436;-61
2023/12/16 02:55:06;;;;;;;10.10;3.28;;;8.20;99.90;;;;;;5053471;28;20450;-61
2023/12/16 02:57:33;;;;;;;9.65;2.45;;;8.20;99.90;;;;;;5053224;28;20079;-61
2023/12/16 03:00:00;;;;;;;15.85;2.80;;;8.20;99.90;;;;;;5053445;28;20041;-61
2023/12/16 03:02:27;;;;;;;11.45;3.00;;;8.30;99.90;;;;;;5053326;28;20055;-61
2023/12/16 03:04:53;;;;;;;8.60;2.45;;;8.30;99.90;;;;;;5053322;28;20099;-61
2023/12/16 03:07:20;;;;;;;10.40;2.50;;;8.30;99.90;;;;;;5053291;28;20398;-61
2023/12/16 03:09:47;;;;;;;8.88;2.42;;;8.30;99.90;;;;;;5053407;28;20072;-61
2023/12/16 03:12:14;;;;;;;9.48;2.40;;;8.30;99.90;;;;;;5053606;28;20429;-61
2023/12/16 03:14:41;;;;;;;10.48;2.60;;;8.30;99.90;;;;;;5053148;28;20037;-61
2023/12/16 03:17:08;;;;;;;11.93;2.42;;;8.30;99.90;;;;;;5053199;28;20098;-61
2023/12/16 03:19:35;;;;;;;13.25;2.65;;;8.30;99.90;;;;;;5053160;28;20059;-61
2023/12/16 03:22:03;;;;;;;10.13;2.42;;;8.30;99.90;;;;;;5053277;28;20454;-61
2023/12/16 03:24:30;;;;;;;9.45;2.38;;;8.30;99.90;;;;;;5053165;28;20049;-61
2023/12/16 03:26:56;;;;;;;9.05;2.15;;;8.30;99.90;;;;;;5053267;28;20045;-61
2023/12/16 03:29:23;;;;;;;7.00;2.10;;;8.30;99.90;;;;;;5053200;28;20055;-62
2023/12/16 03:31:50;;;;;;;4.70;1.95;;;8.30;99.90;;;;;;5053320;28;20076;-61
2023/12/16 03:34:17;;;;;;;7.47;2.00;;;8.40;99.90;;;;;;5053127;28;20041;-61
2023/12/16 03:36:44;;;;;;;5.22;2.15;;;8.40;99.90;;;;;;5052756;28;20083;-61
2023/12/16 03:39:11;;;;;;;7.32;2.03;;;8.30;99.90;;;;;;5052989;28;20044;-61
2023/12/16 03:41:38;;;;;;;9.50;2.22;;;8.40;99.90;;;;;;5051701;28;20132;-61
2023/12/16 03:44:05;;;;;;;6.32;1.75;;;8.40;99.90;;;;;;5053087;28;20513;-61
2023/12/16 03:46:31;;;;;;;6.47;2.10;;;8.40;99.90;;;;;;5052644;28;20041;-61
2023/12/16 03:48:58;;;;;;;7.70;2.40;;;8.40;99.90;;;;;;5056646;28;20040;-61
2023/12/16 03:51:25;;;;;;;6.55;2.00;;;8.40;99.90;;;;;;5056672;28;20076;-61
2023/12/16 03:53:52;;;;;;;4.97;1.60;;;8.40;99.90;;;;;;5056709;28;20068;-61
2023/12/16 03:56:19;;;;;;;6.30;1.88;;;8.50;99.90;;;;;;5056701;28;20071;-61
2023/12/16 03:58:46;;;;;;;5.80;2.25;;;8.50;99.90;;;;;;5056694;28;20068;-61
2023/12/16 04:01:15;;;;;;;8.30;1.80;;;8.50;99.90;;;;;;5056604;28;20033;-61
2023/12/16 04:03:42;;;;;;;5.30;2.05;;;8.50;99.90;;;;;;5056856;28;20120;-60
2023/12/16 04:06:09;;;;;;;5.97;1.73;;;8.50;99.90;;;;;;5055362;28;20043;-61
2023/12/16 04:08:35;;;;;;;5.75;1.80;;;8.60;99.90;;;;;;5056422;28;20405;-61
2023/12/16 04:11:02;;;;;;;7.25;1.95;;;8.60;99.90;;;;;;5056486;28;20039;-60
2023/12/16 04:13:29;;;;;;;6.53;1.90;;;8.60;99.90;;;;;;5056223;28;20099;-61
2023/12/16 04:15:56;;;;;;;6.95;1.80;;;8.60;99.90;;;;;;5056371;28;20041;-61
2023/12/16 04:18:23;;;;;;;7.28;1.52;;;8.60;99.90;;;;;;5056347;28;20486;-61
2023/12/16 04:20:50;;;;;;;5.18;1.58;;;8.60;99.90;;;;;;5056240;28;20045;-61
2023/12/16 04:23:17;;;;;;;4.05;1.90;;;8.70;99.90;;;;;;5056197;28;20045;-61
2023/12/16 04:25:44;;;;;;;4.63;1.92;;;8.70;99.90;;;;;;5055900;28;20053;-61
2023/12/16 04:28:10;;;;;;;5.40;1.60;;;8.70;99.90;;;;;;5056005;28;20048;-61
2023/12/16 04:30:37;;;;;;;4.68;1.90;;;8.70;99.90;;;;;;5054764;28;20041;-61
2023/12/16 04:33:04;;;;;;;4.25;1.38;;;8.80;99.90;;;;;;5055966;28;20049;-60
2023/12/16 04:35:31;;;;;;;6.90;2.03;;;8.80;99.90;;;;;;5055917;28;20505;-61
2023/12/16 04:37:58;;;;;;;4.00;1.17;;;8.80;99.90;;;;;;5056075;28;20477;-62
2023/12/16 04:40:25;;;;;;;6.43;1.52;;;8.80;99.90;;;;;;5055558;28;20057;-61
2023/12/16 04:42:52;;;;;;;3.70;1.23;;;8.80;99.90;;;;;;5055473;28;20045;-61
2023/12/16 04:45:19;;;;;;;3.20;1.50;;;8.90;99.90;;;;;;5055727;28;20470;-61
2023/12/16 04:47:45;;;;;;;3.47;1.38;;;8.90;99.90;;;;;;5055699;28;20482;-61
2023/12/16 04:50:12;;;;;;;3.20;1.23;;;8.90;99.90;;;;;;5055806;28;20032;-61
2023/12/16 04:52:39;;;;;;;2.20;1.05;;;8.90;99.90;;;;;;5055598;28;20386;-61
2023/12/16 04:55:06;;;;;;;2.90;0.70;;;9.00;99.90;;;;;;5055526;28;20095;-62
2023/12/16 04:57:33;;;;;;;3.05;0.88;;;9.00;99.90;;;;;;5055898;28;20045;-62
2023/12/16 04:59:59;;;;;;;3.03;0.95;;;9.00;99.90;;;;;;5054814;28;20500;-62
2023/12/16 05:02:26;;;;;;;2.80;0.80;;;9.10;99.90;;;;;;5055356;28;20099;-65
2023/12/16 05:04:53;;;;;;;2.70;0.85;;;9.10;99.90;;;;;;5055372;28;20041;-62
2023/12/16 05:07:20;;;;;;;3.20;1.00;;;9.20;99.90;;;;;;5055614;28;20101;-61
2023/12/16 05:09:47;;;;;;;3.20;0.90;;;9.20;99.90;;;;;;5054124;28;20139;-62
2023/12/16 05:12:14;;;;;;;5.03;1.00;;;9.20;99.90;;;;;;5055115;28;20096;-62
2023/12/16 05:14:40;;;;;;;2.00;0.82;;;9.20;99.90;;;;;;5055287;28;20048;-62
2023/12/16 05:17:07;;;;;;;3.88;1.00;;;9.20;99.90;;;;;;5053920;28;20398;-62
2023/12/16 05:19:34;;;;;;;3.53;1.00;;;9.30;99.90;;;;;;5055399;28;20167;-62
2023/12/16 05:22:01;;;;;;;3.55;0.90;;;9.30;99.90;;;;;;5055135;28;20044;-61
2023/12/16 05:24:28;;;;;;;2.17;0.98;;;9.30;99.90;;;;;;5055066;28;20085;-62
2023/12/16 05:26:55;;;;;;;2.80;0.80;;;9.30;99.90;;;;;;5055167;28;20045;-62
2023/12/16 05:29:22;;;;;;;3.85;0.88;;;9.30;99.90;;;;;;5054895;28;20095;-61
2023/12/16 05:31:48;;;;;;;2.33;0.77;;;9.30;99.90;;;;;;5055275;28;20410;-61
2023/12/16 05:34:15;;;;;;;2.90;0.85;;;9.30;99.90;;;;;;5054699;28;20064;-61
2023/12/16 05:36:42;;;;;;;2.58;0.90;;;9.30;99.90;;;;;;5054556;28;20049;-61
2023/12/16 05:39:09;;;;;;;3.13;1.00;;;9.40;99.90;;;;;;5054446;28;20049;-61
2023/12/16 05:41:36;;;;;;;3.30;1.08;;;9.40;99.90;;;;;;5054615;28;20592;-61
2023/12/16 05:44:03;;;;;;;3.47;1.00;;;9.40;99.90;;;;;;5054743;28;20040;-61
2023/12/16 05:46:30;;;;;;;2.80;0.90;;;9.40;99.90;;;;;;5054628;28;20049;-61
2023/12/16 05:48:57;;;;;;;2.65;0.90;;;9.40;99.90;;;;;;5054593;28;20513;-61
2023/12/16 05:51:23;;;;;;;2.72;0.90;;;9.40;99.90;;;;;;5054403;28;20102;-61
2023/12/16 05:53:50;;;;;;;3.50;1.10;;;9.40;99.90;;;;;;5054341;28;20041;-61
2023/12/16 05:56:17;;;;;;;3.35;0.80;;;9.40;99.90;;;;;;5054199;28;20037;-61
2023/12/16 05:58:44;;;;;;;2.03;0.82;;;9.50;99.90;;;;;;5054287;28;20049;-61
2023/12/16 06:01:11;;;;;;;2.75;0.90;;;9.50;99.90;;;;;;5054349;28;20047;-62
2023/12/16 06:03:39;;;;;;;3.55;1.13;;;9.50;99.90;;;;;;5054511;28;20134;-60
2023/12/16 06:06:05;;;;;;;3.15;0.90;;;9.50;99.90;;;;;;5054589;28;20037;-61
2023/12/16 06:08:32;;;;;;;2.25;0.77;;;9.50;99.90;;;;;;5053872;28;20037;-61
2023/12/16 06:10:59;;;;;;;2.88;1.02;;;9.50;99.90;;;;;;5054448;28;20466;-61
2023/12/16 06:13:26;;;;;;;2.75;0.90;;;9.50;99.90;;;;;;5054245;28;20045;-61
2023/12/16 06:15:53;;;;;;;2.15;0.85;;;9.50;99.90;;;;;;5054116;28;20478;-61
2023/12/16 06:18:38;;;;;;;2.60;1.00;;;9.50;99.90;;;;;;5053048;28;20049;-61
2023/12/16 06:21:05;;;;;;;2.22;0.90;;;9.50;99.90;;;;;;5054305;28;20072;-60
2023/12/16 06:23:32;;;;;;;3.72;1.00;;;9.60;99.90;;;;;;5054294;28;20049;-61
2023/12/16 06:25:59;;;;;;;2.35;0.98;;;9.50;99.90;;;;;;5054000;28;20048;-61
2023/12/16 06:28:26;;;;;;;2.67;1.05;;;9.60;99.90;;;;;;5053669;28;20098;-61
2023/12/16 06:30:52;;;;;;;3.17;1.10;;;9.60;99.90;;;;;;5053922;28;20053;-61
2023/12/16 06:33:22;;;;;;;2.42;1.40;;;9.60;99.90;;;;;;5053953;28;20045;-61
2023/12/16 06:35:49;;;;;;;2.40;0.93;;;9.60;99.90;;;;;;5053267;28;20407;-61
2023/12/16 06:38:15;;;;;;;2.22;1.13;;;9.60;99.90;;;;;;5053746;28;20044;-61
2023/12/16 06:40:43;;;;;;;2.72;1.20;;;9.60;99.90;;;;;;5053959;28;20084;-61
2023/12/16 06:43:10;;;;;;;3.08;1.30;;;9.60;99.90;;;;;;5053889;28;20390;-61
2023/12/16 06:45:40;;;;;;;2.05;1.27;;;9.60;99.90;;;;;;5052492;28;20120;-61
2023/12/16 06:48:07;;;;;;;2.22;1.35;;;9.60;99.90;;;;;;5052041;28;20140;-61
2023/12/16 06:50:34;;;;;;;2.10;1.10;;;9.60;99.90;;;;;;5053620;28;20582;-60
2023/12/16 06:53:01;;;;;;;2.20;1.02;;;9.70;99.90;;;;;;5053548;28;20059;-61
2023/12/16 06:55:27;;;;;;;2.03;1.10;;;9.60;99.90;;;;;;5053805;28;20060;-61
2023/12/16 06:57:54;;;;;;;2.03;0.90;;;9.70;99.90;;;;;;5053398;28;20045;-60
2023/12/16 07:00:21;;;;;;;1.85;1.00;;;9.70;99.90;;;;;;5053630;28;20425;-61
2023/12/16 07:02:48;;;;;;;2.75;1.17;;;9.70;99.90;;;;;;5053427;28;20036;-60
2023/12/16 07:05:14;;;;;;;3.25;1.00;;;9.70;99.90;;;;;;5053566;28;20047;-60
2023/12/16 07:07:41;;;;;;;1.92;0.90;;;9.70;99.90;;;;;;5053154;28;20540;-61
2023/12/16 07:10:08;;;;;;;1.98;0.80;;;9.70;99.90;;;;;;5053473;28;20045;-61
2023/12/16 07:12:35;;;;;;;3.35;1.08;;;9.70;99.90;;;;;;5053627;28;20094;-61
2023/12/16 07:15:02;;;;;;;1.60;0.80;;;9.70;99.90;;;;;;5053216;28;20037;-62
2023/12/16 07:17:29;;;;;;;2.35;1.08;;;9.80;99.90;;;;;;5053589;28;20037;-62
2023/12/16 07:19:56;;;;;;;3.67;1.05;;;9.80;99.90;;;;;;5053543;28;20414;-62
2023/12/16 07:22:23;;;;;;;1.77;0.90;;;9.80;99.90;;;;;;5055273;28;20049;-62
2023/12/16 07:24:50;;;;;;;1.60;0.70;;;9.80;99.90;;;;;;5057506;28;20041;-62
2023/12/16 07:27:17;;;;;;;2.30;1.00;;;9.80;99.90;;;;;;5057234;28;20068;-62
2023/12/16 07:29:44;;;;;;;2.65;0.82;;;9.80;99.90;;;;;;5057312;28;20041;-62
2023/12/16 07:32:10;;;;;;;2.67;1.00;;;9.80;99.90;;;;;;5057510;28;20044;-62
2023/12/16 07:34:37;;;;;;;3.08;0.90;;;9.80;99.90;;;;;;5056807;28;20044;-62
2023/12/16 07:37:04;;;;;;;1.65;1.00;;;9.80;99.90;;;;;;5056864;28;20041;-61
2023/12/16 07:39:31;;;;;;;3.47;0.90;;;9.90;99.90;;;;;;5056857;28;20037;-61
2023/12/16 07:41:58;;;;;;;4.22;0.90;;;9.90;99.90;;;;;;5057243;28;20033;-61
2023/12/16 07:44:27;;;;;;;2.05;0.80;;;9.90;99.90;;;;;;5057050;28;20048;-61
2023/12/16 07:46:53;;;;;;;2.38;0.80;;;9.90;99.90;;;;;;5056888;28;20053;-61
2023/12/16 07:49:24;;;;;;;1.83;0.82;;;9.90;99.90;;;;;;5056863;28;20049;-61
2023/12/16 07:51:51;;;;;;;3.20;1.08;;;9.90;99.90;;;;;;5057040;28;20445;-61
2023/12/16 07:54:18;;;;;;;2.88;1.13;;;9.90;99.90;;;;;;5056877;28;20040;-61
2023/12/16 07:56:45;;;;;;;2.15;0.95;;;10.00;99.90;;;;;;5056942;28;20044;-61
2023/12/16 07:59:12;;;;;;;3.15;1.13;;;9.90;99.90;;;;;;5056598;28;20033;-61
2023/12/16 08:01:38;;;;;;;2.15;1.23;;;10.00;99.90;;;;;;5056906;28;20040;-61
2023/12/16 08:04:05;;;;;;;2.83;1.38;;;10.00;99.90;;;;;;5056992;28;20033;-61
2023/12/16 08:06:32;;;;;;;2.50;1.20;;;10.00;99.90;;;;;;5056710;28;20439;-60
2023/12/16 08:09:00;;;;;;;3.00;1.30;;;10.00;99.90;;;;;;5056524;28;20044;-60
2023/12/16 08:11:26;;;;;;;4.32;1.13;;;10.00;99.90;;;;;;5056662;28;20095;-60
2023/12/16 08:13:53;;;;;;;1.95;1.20;;;10.00;99.90;;;;;;5054808;28;20076;-60
2023/12/16 08:16:20;;;;;;;2.97;1.10;;;10.10;99.90;;;;;;5056228;28;20052;-60
2023/12/16 08:18:47;;;;;;;2.30;1.27;;;10.10;99.90;;;;;;5056419;28;20041;-60
2023/12/16 08:21:14;;;;;;;3.72;1.38;;;10.10;99.90;;;;;;5056575;28;20033;-61
2023/12/16 08:23:41;;;;;;;3.38;1.00;;;10.10;99.90;;;;;;5056517;28;20037;-61
2023/12/16 08:26:08;;;;;;;4.95;1.45;;;10.10;99.90;;;;;;5056279;28;20127;-60
2023/12/16 08:28:34;;;;;;;2.40;1.17;;;10.10;99.90;;;;;;5056292;28;20095;-60
2023/12/16 08:31:01;;;;;;;2.22;1.20;;;10.10;99.90;;;;;;5056054;28;20071;-61
2023/12/16 08:33:28;;;;;;;2.20;1.17;;;10.10;99.90;;;;;;5054862;28;20071;-60
2023/12/16 08:35:56;;;;;;;1.85;1.20;;;10.10;99.90;;;;;;5055911;28;20055;-60
2023/12/16 08:38:23;;;;;;;2.13;1.20;;;10.10;99.90;;;;;;5055902;28;20474;-60
2023/12/16 08:40:53;;;;;;;1.90;1.20;;;10.10;99.90;;;;;;5056080;28;20068;-61
2023/12/16 08:43:19;;;;;;;2.03;1.10;;;10.10;99.90;;;;;;5055946;28;20036;-61
2023/12/16 08:45:46;;;;;;;2.28;1.00;;;10.20;99.90;;;;;;5055179;28;20045;-61
2023/12/16 08:48:13;;;;;;;1.88;0.95;;;10.20;99.90;;;;;;5058627;28;20103;-61
2023/12/16 08:50:40;;;;;;;1.75;1.02;;;10.20;99.90;;;;;;5063626;28;20040;-61
2023/12/16 08:53:07;;;;;;;2.30;1.00;;;10.20;99.90;;;;;;5072844;28;20040;-61
2023/12/16 08:55:33;;;;;;;2.15;1.15;;;10.20;99.90;;;;;;5060370;28;20033;-61
2023/12/16 08:58:00;;;;;;;1.60;0.80;;;10.30;99.90;;;;;;5054219;28;20076;-61
2023/12/16 09:00:27;;;;;;;1.10;0.60;;;10.20;99.90;;;;;;5050216;28;20033;-62
2023/12/16 09:02:54;;;;;;;1.33;0.50;;;10.20;99.90;;;;;;5058299;28;20037;-60
2023/12/16 09:05:21;;;;;;;2.35;0.80;;;10.30;99.90;;;;;;5042332;28;20703;-60
2023/12/16 09:07:48;;;;;;;1.40;0.52;;;10.30;99.90;;;;;;5046324;28;20053;-60
2023/12/16 09:10:15;;;;;;;0.90;0.50;;;10.30;99.90;;;;;;5048328;28;20075;-61
2023/12/16 09:12:42;;;;;;;1.20;0.50;;;10.30;99.90;;;;;;5046079;28;20045;-61
2023/12/16 09:15:08;;;;;;;1.58;0.60;;;10.30;99.90;;;;;;5046051;28;20119;-61
2023/12/16 09:17:35;;;;;;;1.83;0.82;;;10.40;99.90;;;;;;5065488;28;20067;-61
2023/12/16 09:20:03;;;;;;;1.30;0.50;;;10.40;99.90;;;;;;5055933;28;20048;-60
2023/12/16 09:22:29;;;;;;;2.17;0.60;;;10.40;99.90;;;;;;5058107;28;20039;-63
2023/12/16 09:24:57;;;;;;;2.72;0.80;;;10.40;99.90;;;;;;5052560;28;20045;-64
2023/12/16 09:27:23;;;;;;;2.58;0.80;;;10.40;99.90;;;;;;5050768;28;20037;-63
2023/12/16 09:29:50;;;;;;;3.83;1.00;;;10.50;99.90;;;;;;5053116;28;20033;-63
2023/12/16 09:32:17;;;;;;;2.15;0.95;;;10.50;99.90;;;;;;5053327;28;20551;-63
2023/12/16 09:34:44;;;;;;;2.10;0.82;;;10.50;99.90;;;;;;5048568;28;20121;-63
2023/12/16 09:37:11;;;;;;;2.38;0.90;;;10.50;99.90;;;;;;5046475;28;20490;-64
2023/12/16 09:39:38;;;;;;;3.80;1.02;;;10.50;99.90;;;;;;5048127;28;20045;-63
2023/12/16 09:42:05;;;;;;;3.17;1.02;;;10.50;99.90;;;;;;5053291;28;20039;-63
2023/12/16 09:44:32;;;;;;;2.63;1.10;;;10.60;99.90;;;;;;5047411;28;20383;-63
2023/12/16 09:46:59;;;;;;;3.13;1.15;;;10.50;99.90;;;;;;5059197;28;20056;-62
2023/12/16 09:49:26;;;;;;;3.50;1.30;;;10.50;99.90;;;;;;5050352;28;20437;-62
2023/12/16 09:51:53;;;;;;;3.58;1.40;;;10.60;99.90;;;;;;5045938;28;20037;-61
2023/12/16 09:54:20;;;;;;;2.88;1.17;;;10.60;99.90;;;;;;5045703;28;20044;-62
2023/12/16 09:56:47;;;;;;;2.30;1.10;;;10.60;99.90;;;;;;5046915;28;20041;-62
2023/12/16 09:59:13;;;;;;;2.03;0.98;;;10.60;99.90;;;;;;5047641;28;20441;-63
2023/12/16 10:01:40;;;;;;;2.38;1.35;;;10.60;99.90;;;;;;5063472;28;20060;-61
2023/12/16 10:04:07;;;;;;;2.00;1.00;;;10.70;99.90;;;;;;5054639;28;20490;-62
2023/12/16 10:06:34;;;;;;;1.33;0.70;;;10.80;99.90;;;;;;5044639;28;20382;-62
2023/12/16 10:09:01;;;;;;;2.50;0.80;;;10.80;99.90;;;;;;5043829;28;20033;-62
2023/12/16 10:11:28;;;;;;;2.47;0.80;;;10.80;99.90;;;;;;5044885;28;20383;-62
2023/12/16 10:13:55;;;;;;;1.65;0.70;;;10.80;99.90;;;;;;5045074;28;20474;-62
2023/12/16 10:16:23;;;;;;;2.35;0.82;;;10.90;99.90;;;;;;5042040;28;20120;-62
2023/12/16 10:18:50;;;;;;;2.28;0.80;;;10.90;99.90;;;;;;5041871;28;20065;-63
2023/12/16 10:21:17;;;;;;;1.58;0.80;;;10.90;99.90;;;;;;5038414;28;20041;-62
2023/12/16 10:23:50;;;;;;;2.20;0.90;;;11.00;99.90;;;;;;5040338;28;20113;-62
2023/12/16 10:26:17;;;;;;;2.15;0.90;;;11.00;99.90;;;;;;5040033;28;20040;-62
2023/12/16 10:28:44;;;;;;;1.48;0.70;;;11.00;99.90;;;;;;5053326;28;20115;-63
2023/12/16 10:31:11;;;;;;;2.08;0.93;;;11.00;99.90;;;;;;5053071;28;20056;-63
2023/12/16 10:33:38;;;;;;;3.95;1.05;;;11.10;99.90;;;;;;5052618;28;20068;-62
2023/12/16 10:36:04;;;;;;;1.40;0.82;;;11.00;99.90;;;;;;5032393;28;20049;-61
2023/12/16 10:38:31;;;;;;;1.48;0.77;;;11.10;99.90;;;;;;5047584;28;20045;-62
2023/12/16 10:40:58;;;;;;;1.30;0.70;;;11.10;99.90;;;;;;5033623;28;20463;-62
2023/12/16 10:43:25;;;;;;;2.47;0.80;;;11.10;99.90;;;;;;5037548;28;20064;-62
2023/12/16 10:45:51;;;;;;;2.42;0.93;;;11.20;99.90;;;;;;5033756;28;20069;-61
2023/12/16 10:48:18;;;;;;;3.45;0.90;;;11.30;99.90;;;;;;5038278;28;20048;-60
2023/12/16 10:50:45;;;;;;;1.50;0.73;;;11.30;99.90;;;;;;5046493;28;20049;-60
2023/12/16 10:53:12;;;;;;;1.60;0.70;;;11.30;99.90;;;;;;5046074;28;20555;-60
2023/12/16 10:55:40;;;;;;;3.38;0.90;;;11.30;99.90;;;;;;5051642;28;20062;-61
2023/12/16 10:58:07;;;;;;;2.17;0.88;;;11.30;99.90;;;;;;5052570;28;20041;-61
2023/12/16 11:00:35;;;;;;;1.42;0.50;;;11.30;99.90;;;;;;5051390;28;20033;-60
2023/12/16 11:03:01;;;;;;;1.88;0.60;;;11.30;99.90;;;;;;5040797;28;20045;-60
2023/12/16 11:05:34;;;;;;;1.52;0.50;;;11.30;99.90;;;;;;5039908;28;20051;-60
2023/12/16 11:08:01;;;;;;;0.95;0.50;;;11.30;99.90;;;;;;5033547;28;20050;-61
2023/12/16 11:10:29;;;;;;;0.88;0.40;;;11.30;99.90;;;;;;5040025;28;20056;-60
2023/12/16 11:12:56;;;;;;;1.13;0.47;;;11.30;99.90;;;;;;5051135;28;20053;-61
2023/12/16 11:15:23;;;;;;;0.98;0.40;;;11.40;99.90;;;;;;5054449;28;20033;-61
2023/12/16 11:17:50;;;;;;;2.20;0.68;;;11.40;99.90;;;;;;5040186;28;20065;-61
2023/12/16 11:20:17;;;;;;;1.50;0.55;;;11.50;99.90;;;;;;5032022;28;20120;-61
2023/12/16 11:22:43;;;;;;;1.25;0.60;;;11.50;99.90;;;;;;5050115;28;20049;-62
2023/12/16 11:25:10;;;;;;;1.33;0.52;;;11.50;99.90;;;;;;5052468;28;20045;-62
2023/12/16 11:27:37;;;;;;;0.98;0.40;;;11.60;99.90;;;;;;5051431;28;20037;-62
2023/12/16 11:30:04;;;;;;;1.48;0.50;;;11.60;99.90;;;;;;5052075;28;20509;-62
2023/12/16 11:32:32;;;;;;;1.83;0.70;;;11.60;99.90;;;;;;5051607;28;20036;-62
2023/12/16 11:34:59;;;;;;;1.63;0.60;;;11.70;99.90;;;;;;5052092;28;20127;-61
2023/12/16 11:37:26;;;;;;;1.50;0.57;;;11.70;99.90;;;;;;5052213;28;20495;-61
2023/12/16 11:39:53;;;;;;;1.30;0.50;;;11.70;99.90;;;;;;5051182;28;20033;-61
2023/12/16 11:42:20;;;;;;;1.88;0.70;;;11.70;99.90;;;;;;5051494;28;20041;-62
2023/12/16 11:44:47;;;;;;;1.30;0.50;;;11.70;99.90;;;;;;5052228;28;20041;-61
2023/12/16 11:47:13;;;;;;;1.20;0.55;;;11.70;99.90;;;;;;5052412;28;20041;-62
2023/12/16 11:49:40;;;;;;;1.75;0.60;;;11.70;99.90;;;;;;5051441;28;20505;-61
2023/12/16 11:52:07;;;;;;;3.28;0.57;;;11.70;99.90;;;;;;5052390;28;20041;-61
2023/12/16 11:54:34;;;;;;;1.40;0.70;;;11.70;99.90;;;;;;5052301;28;20043;-61
2023/12/16 11:57:01;;;;;;;1.65;0.60;;;11.70;99.90;;;;;;5051951;28;20036;-61
2023/12/16 11:59:28;;;;;;;1.45;0.60;;;11.70;99.90;;;;;;5052271;28;20033;-61
2023/12/16 12:01:54;;;;;;;2.08;1.08;;;11.70;99.90;;;;;;5051891;28;20060;-61
2023/12/16 12:04:21;;;;;;;1.10;0.50;;;11.60;99.90;;;;;;5048308;28;20096;-61
2023/12/16 12:06:48;;;;;;;3.80;0.55;;;11.70;99.90;;;;;;5032129;28;20048;-62
2023/12/16 12:09:15;;;;;;;0.98;0.40;;;11.70;99.90;;;;;;5035929;28;20463;-61
2023/12/16 12:11:42;;;;;;;0.82;0.40;;;11.80;99.90;;;;;;5035489;28;20076;-61
2023/12/16 12:14:09;;;;;;;2.55;0.68;;;11.80;99.90;;;;;;5036446;28;20445;-61
2023/12/16 12:16:36;;;;;;;1.05;0.30;;;11.90;99.90;;;;;;5044338;28;20140;-61
2023/12/16 12:19:03;;;;;;;1.25;0.50;;;11.90;99.90;;;;;;5055480;28;20067;-61
2023/12/16 12:21:30;;;;;;;1.10;0.50;;;11.90;99.90;;;;;;5053982;28;20455;-61
2023/12/16 12:23:57;;;;;;;2.20;0.60;;;11.90;99.90;;;;;;5054721;28;20520;-61
2023/12/16 12:26:24;;;;;;;1.33;0.50;;;12.00;99.90;;;;;;5054391;28;20049;-61
2023/12/16 12:28:50;;;;;;;2.05;0.90;;;12.00;99.90;;;;;;5054023;28;20037;-61
2023/12/16 12:31:17;;;;;;;1.73;0.68;;;12.00;99.90;;;;;;5053999;28;20123;-61
2023/12/16 12:33:44;;;;;;;3.25;0.70;;;12.00;99.90;;;;;;5053943;28;20045;-61
2023/12/16 12:36:11;;;;;;;1.40;0.80;;;12.00;99.90;;;;;;5053174;28;20044;-62
2023/12/16 12:38:38;;;;;;;1.98;0.60;;;12.10;99.90;;;;;;5053363;28;20037;-61
2023/12/16 12:41:06;;;;;;;2.20;0.90;;;12.10;99.90;;;;;;5053129;28;20075;-61
2023/12/16 12:43:33;;;;;;;1.98;1.00;;;12.10;99.90;;;;;;5055086;28;20048;-62
2023/12/16 12:46:00;;;;;;;3.30;1.00;;;12.10;99.90;;;;;;5055089;28;20071;-61
2023/12/16 12:48:26;;;;;;;2.55;1.23;;;12.10;99.90;;;;;;5054049;28;20045;-62